Flight Track Log - Related Links

Times and Time Zones

All times are in EDT time to prevent confusion due to time zone crossing. See the N932CD flight status page for this flight to view local times or setup timezone preferences in your user account.

Time Position Orientation Groundspeed Altitude Reporting Facility
EDT Latitude Longitude Course Direction KTS MPH feet Rate Location/Type
Sun 01:17:46 PM 27.4667 -80.3653 156° South 60 69 800  Level Miami Center
Sun 01:18:46 PM 27.4522 -80.3581 156° South 60 69 1,200 450 Climbing Miami Center
Sun 01:19:46 PM 27.4572 -80.3231 81° East 80 92 1,700 500 Climbing Miami Center
Sun 01:20:46 PM 27.4642 -80.2928 76° East 101 116 2,200 500 Climbing Miami Center
Sun 01:21:46 PM 27.4714 -80.2603 76° East 101 116 2,700 450 Climbing Miami Center
Sun 01:22:46 PM 27.4783 -80.2322 74° East 102 117 3,100 400 Climbing Miami Center
Sun 01:23:46 PM 27.4894 -80.2000 69° East 102 117 3,500 500 Climbing Miami Center
Sun 01:24:46 PM 27.5272 -80.1964 North 97 112 4,100 500 Climbing Miami Center
Sun 01:25:46 PM 27.5583 -80.2042 348° North 119 137 4,500 400 Climbing Miami Center
Sun 01:26:46 PM 27.5936 -80.2122 349° North 125 144 4,900 400 Climbing Miami Center
Sun 01:27:46 PM 27.6225 -80.2178 350° North 125 144 5,300 450 Climbing Miami Center
Sun 01:28:46 PM 27.6600 -80.2258 349° North 120 138 5,800 450 Climbing Miami Center
Sun 01:29:46 PM 27.6933 -80.2339 348° North 120 138 6,200 300 Climbing Miami Center
Sun 01:30:46 PM 27.7242 -80.2514 333° Northwest 120 138 6,400 350 Climbing Miami Center
Sun 01:31:46 PM 27.7489 -80.2661 332° Northwest 120 138 6,900 300 Climbing Miami Center
Sun 01:32:46 PM 27.7819 -80.2811 338° Northwest 115 132 7,000  Climbing Miami Center
Sun 01:33:46 PM 27.8200 -80.2589 27° Northeast 123 142 6,900  Descending Miami Center
Sun 01:34:46 PM 27.8517 -80.2386 30° Northeast 148 170 7,000 -50 Climbing Miami Center
Sun 01:35:46 PM 27.9003 -80.2214 17° North 148 170 6,800 -67 Descending Miami Center
Sun 01:37:00 PM 27.9433 -80.2555 325° Northwest  Level FlightAware
Sun 01:37:46 PM 27.9778 -80.2094 325° Northwest 143 165 6,800  Level Miami Center
Sun 01:38:46 PM 28.0192 -80.2178 350° North 143 165 6,900 50 Climbing Miami Center
Sun 01:39:46 PM 28.0606 -80.2331 342° North 143 165 6,900  Level Miami Center
Sun 01:40:46 PM 28.1000 -80.2508 North 148 170 6,900  Level Miami Center
Sun 01:41:00 PM 28.0969 -80.2304 North  Level FlightAware
Sun 01:42:46 PM 28.1783 -80.2836 340° North 148 170 6,900  Level Miami Center
Sun 01:43:46 PM 28.2197 -80.2967 344° North 148 170 6,900  Level Miami Center
Sun 01:44:46 PM 28.2614 -80.3075 347° North 148 170 6,900 50 Level Miami Center
Sun 01:45:46 PM 28.3006 -80.3228 341° North 148 170 7,000 39 Climbing Miami Center
Sun 01:47:21 PM 28.3667 -80.3500 340° North 152 175 7,000  Level Orlando TRACON
Sun 01:48:21 PM 28.4000 -80.3667 336° Northwest 154 177 7,000  Level Orlando TRACON
Sun 01:49:15 PM 28.4500 -80.3667 360° North 156 180 7,000 -53 Level Orlando TRACON
Sun 01:50:15 PM 28.4833 -80.3833 336° Northwest 165 190 6,900  Descending Orlando TRACON
Sun 01:51:09 PM 28.5167 -80.4000 336° Northwest 157 181 7,000 50 Climbing Orlando TRACON
Sun 01:52:15 PM 28.5667 -80.4167 344° North 158 182 7,000  Level Orlando TRACON
Sun 01:53:15 PM 28.6167 -80.4333 344° North 157 181 7,000  Level Orlando TRACON
Sun 01:54:09 PM 28.6500 -80.4500 336° Northwest 151 174 7,000  Level Orlando TRACON
Sun 01:55:09 PM 28.6833 -80.4833 319° Northwest 149 171 7,000  Level Orlando TRACON
Sun 01:56:09 PM 28.7167 -80.5000 336° Northwest 145 167 7,000  Level Orlando TRACON
Sun 01:57:09 PM 28.7500 -80.5333 319° Northwest 149 171 7,000  Level Orlando TRACON
Sun 01:58:03 PM 28.7667 -80.5500 319° Northwest 148 170 7,000 -37 Level Orlando TRACON
Sun 01:59:52 PM 28.8431 -80.5933 334° Northwest 155 178 6,900 -69 Descending Jacksonville Center
Sun 02:00:58 PM 28.8850 -80.6114 339° North 153 176 6,800  Descending Jacksonville Center
Sun 02:01:53 PM 28.9128 -80.6417 316° Northwest 150 173 6,900 50 Climbing Jacksonville Center
Sun 02:02:59 PM 28.9508 -80.6739 323° Northwest 146 168 6,900  Level Jacksonville Center
Sun 02:04:06 PM 28.9889 -80.7017 327° Northwest 147 169 6,900  Level Jacksonville Center
Sun 02:05:07 PM 29.0208 -80.7269 325° Northwest 148 170 6,900  Level Jacksonville Center
Sun 02:06:13 PM 29.0506 -80.7619 314° West 142 163 6,900  Level Jacksonville Center
Sun 02:07:14 PM 29.0783 -80.7994 310° West 140 161 6,900  Level Jacksonville Center
Sun 02:08:09 PM 29.0994 -80.8250 313° West 133 153 6,900  Level Jacksonville Center
Sun 02:09:21 PM 29.1314 -80.8647 313° West 140 161 6,900  Level Jacksonville Center
Sun 02:10:22 PM 29.1447 -80.9025 292° West 133 153 6,900  Level Jacksonville Center
Sun 02:11:23 PM 29.1578 -80.9406 291° West 135 155 6,900  Level Jacksonville Center
Sun 02:12:23 PM 29.1833 -80.9803 306° West 150 173 6,900  Level Jacksonville Center
Sun 02:13:24 PM 29.2233 -80.9986 338° Northwest 154 177 6,900  Level Jacksonville Center
Sun 02:14:18 PM 29.2631 -81.0144 341° North 154 177 6,900  Level Jacksonville Center
Sun 02:15:25 PM 29.3053 -81.0328 339° North 156 180 6,900  Level Jacksonville Center
Sun 02:16:26 PM 29.3431 -81.0536 334° Northwest 153 176 6,900  Level Jacksonville Center
Sun 02:17:26 PM 29.3747 -81.0814 323° Northwest 144 166 6,900  Level Jacksonville Center
Sun 02:18:27 PM 29.4044 -81.1119 318° Northwest 144 166 6,900  Level Jacksonville Center
Sun 02:19:28 PM 29.4342 -81.1447 316° Northwest 142 163 6,900  Level Jacksonville Center
Sun 02:20:22 PM 29.4617 -81.1706 321° Northwest 136 157 6,900  Level Jacksonville Center
Sun 02:21:11 PM 29.4869 -81.1914 324° Northwest 135 155 6,900  Level Jacksonville Center
Sun 02:22:05 PM 29.5144 -81.2172 321° Northwest 144 166 6,900  Level Jacksonville Center
Sun 02:23:12 PM 29.5503 -81.2478 323° Northwest 153 176 6,900  Level Jacksonville Center
Sun 02:24:15 PM 29.5861 -81.2828 320° Northwest 149 171 6,900  Level Jacksonville Center
Sun 02:25:28 PM 29.6222 -81.3206 318° Northwest 147 169 6,900  Level Jacksonville Center
Sun 02:26:17 PM 29.6497 -81.3439 324° Northwest 146 168 6,900  Level Jacksonville Center
Sun 02:27:29 PM 29.6897 -81.3792 323° Northwest 146 168 6,900  Level Jacksonville Center
Sun 02:28:30 PM 29.7214 -81.4075 322° Northwest 145 167 6,900  Level Jacksonville Center
Sun 02:29:19 PM 29.7425 -81.4286 319° Northwest 138 159 6,900  Level Jacksonville Center
Sun 02:30:19 PM 29.7700 -81.4569 318° Northwest 141 162 6,900  Level Jacksonville Center
Sun 02:31:20 PM 29.8139 -81.4633 353° North 145 167 6,900  Level Jacksonville Center
Sun 02:32:15 PM 29.8494 -81.4678 354° North 144 166 6,900  Level Jacksonville Center
Sun 02:33:21 PM 29.8953 -81.4669 North 149 171 6,900  Level Jacksonville Center
Sun 02:35:23 PM 29.9808 -81.4731 356° North 151 174 6,900  Level Jacksonville Center
Sun 02:36:24 PM 30.0208 -81.4819 349° North 144 166 6,900  Level Jacksonville Center
Sun 02:37:18 PM 30.0583 -81.4861 355° North 148 170 6,900  Level Jacksonville Center
Sun 02:38:19 PM 30.1000 -81.4881 358° North 155 178 6,900  Level Jacksonville Center
Sun 02:39:38 PM 30.1586 -81.4944 355° North 158 182 6,900  Level Jacksonville Center
Sun 02:40:38 PM 30.2044 -81.4961 358° North 156 180 6,900  Level Jacksonville Center
Sun 02:41:39 PM 30.2486 -81.5003 355° North 153 176 6,900  Level Jacksonville Center
Sun 02:42:28 PM 30.2797 -81.5022 357° North 153 176 6,900  Level Jacksonville Center
Sun 02:43:29 PM 30.3239 -81.5136 347° North 154 177 6,900  Level Jacksonville Center
Sun 02:44:29 PM 30.3678 -81.5178 355° North 146 168 6,900  Level Jacksonville Center
Sun 02:45:30 PM 30.4072 -81.5100 10° North 151 174 6,900  Level Jacksonville Center
Sun 02:46:31 PM 30.4489 -81.4975 15° North 154 177 6,900  Level Jacksonville Center
Sun 02:47:32 PM 30.4906 -81.4894 North 152 175 6,900  Level Jacksonville Center
Sun 02:48:33 PM 30.5322 -81.4914 358° North 157 181 6,900  Level Jacksonville Center
Sun 02:49:52 PM 30.5908 -81.4906 North 155 178 6,900  Level Jacksonville Center
Sun 02:50:34 PM 30.6222 -81.4900 North 155 178 6,900  Level Jacksonville Center
Sun 02:51:52 PM 30.6719 -81.4797 10° North 159 183 6,900  Level Jacksonville Center
Sun 02:52:52 PM 30.7139 -81.4767 North 159 183 6,900  Level Jacksonville Center
Sun 02:53:52 PM 30.7578 -81.4758 North 154 177 6,900  Level Jacksonville Center
Sun 02:54:52 PM 30.7972 -81.4706 North 154 177 6,900  Level Jacksonville Center
Sun 02:55:52 PM 30.8389 -81.4675 North 154 177 6,900  Level Jacksonville Center
Sun 02:57:00 PM 30.8839 -81.4592 North  Level FlightAware
Sun 02:57:52 PM 30.9244 -81.4589 10° North 154 177 6,900  Level Jacksonville Center
Sun 02:59:52 PM 31.0058 -81.4528 North 144 166 6,900  Level Jacksonville Center
Sun 03:00:52 PM 31.0456 -81.4475 21° North 139 160 6,900  Level Jacksonville Center
Sun 03:01:00 PM 31.0485 -81.4340 21° North  Level FlightAware
Sun 03:02:52 PM 31.1328 -81.4267 12° North 150 173 6,900  Level Jacksonville Center
Sun 03:04:00 PM 31.1623 -81.4100 10° North  Level FlightAware
Sun 03:04:52 PM 31.2164 -81.4131 North 156 180 6,900  Level Jacksonville Center
Sun 03:06:52 PM 31.2928 -81.3464 37° Northeast 158 182 6,900  Level Jacksonville Center
Sun 03:07:52 PM 31.3256 -81.3069 46° Northeast 164 189 6,900  Level Jacksonville Center
Sun 03:08:52 PM 31.3567 -81.2794 37° Northeast 164 189 6,900  Level Jacksonville Center
Sun 03:09:52 PM 31.3981 -81.2447 36° Northeast 159 183 6,900  Level Jacksonville Center
Sun 03:10:52 PM 31.4331 -81.2150 36° Northeast 153 176 6,900  Level Jacksonville Center
Sun 03:11:52 PM 31.4661 -81.1828 40° Northeast 153 176 6,900  Level Jacksonville Center
Sun 03:12:52 PM 31.4969 -81.1553 37° Northeast 148 170 6,900  Level Jacksonville Center
Sun 03:13:52 PM 31.5278 -81.1231 42° Northeast 148 170 6,900  Level Jacksonville Center
Sun 03:14:52 PM 31.5669 -81.0883 37° Northeast 153 176 6,900  Level Jacksonville Center
Sun 03:15:52 PM 31.6000 -81.0583 38° Northeast 148 170 6,900  Level Jacksonville Center
Sun 03:16:52 PM 31.6331 -81.0283 38° Northeast 148 170 6,900  Level Jacksonville Center
Sun 03:18:00 PM 31.6676 -80.9944 40° Northeast  Level FlightAware
Sun 03:25:00 PM 31.8810 -80.7840 40° Northeast  Level FlightAware
Sun 03:26:00 PM 31.9114 -80.7539 40° Northeast  Level FlightAware
Sun 03:27:00 PM 31.9419 -80.7237 40° Northeast  Level FlightAware
Sun 03:28:00 PM 31.9723 -80.6935 40° Northeast  Level FlightAware
Sun 03:29:00 PM 32.0028 -80.6634 40° Northeast  Level FlightAware
Sun 03:30:00 PM 32.0332 -80.6331 40° Northeast  Level FlightAware
Sun 03:31:00 PM 32.0636 -80.6029 40° Northeast  Level FlightAware
Sun 03:32:00 PM 32.0940 -80.5726 40° Northeast  Level FlightAware
Sun 03:33:00 PM 32.1253 -80.5430 38° Northeast  Level FlightAware
Sun 03:34:00 PM 32.1565 -80.5138 38° Northeast  Level FlightAware
Sun 03:35:00 PM 32.1877 -80.4847 38° Northeast  Level FlightAware
Sun 03:36:00 PM 32.2189 -80.4555 38° Northeast  Level FlightAware
Sun 03:37:00 PM 32.2500 -80.4262 38° Northeast  Level FlightAware
Sun 03:38:00 PM 32.2812 -80.3970 38° Northeast  Level FlightAware
Sun 03:39:00 PM 32.3123 -80.3678 38° Northeast  Level FlightAware
Sun 03:40:00 PM 32.3435 -80.3385 38° Northeast  Level FlightAware
Sun 03:41:00 PM 32.3744 -80.3089 40° Northeast  Level FlightAware
Sun 03:42:00 PM 32.4048 -80.2785 40° Northeast  Level FlightAware
Sun 03:43:00 PM 32.4352 -80.2482 40° Northeast  Level FlightAware
Sun 03:44:00 PM 32.4656 -80.2178 40° Northeast  Level FlightAware
Sun 03:45:00 PM 32.4960 -80.1873 40° Northeast  Level FlightAware
Sun 03:46:00 PM 32.5264 -80.1570 40° Northeast  Level FlightAware
Sun 03:47:00 PM 32.5568 -80.1265 40° Northeast  Level FlightAware
Sun 03:48:00 PM 32.5872 -80.0961 40° Northeast  Level FlightAware

Login

Don't have an account? Register now (free) for customized features, flight alerts, and more!